Terminal Aerodrome Forecast
Issued by NWS Shreveport, LA

Home | Current Version | Previous Version | Text Only | Print | Product List | Glossary On
Versions: 1 2 3 4 5 6 7 8 9 10 11 12 13 14
000
FTUS44 KSHV 282300
TAFTXK
TAF
KTXK 282334Z 2900/2924 18010KT P6SM FEW250
      TEMPO 2904/2908 BKN040
     FM290800 20010KT P6SM OVC040
      TEMPO 2908/2912 5SM BR OVC020
     FM291200 20008KT 5SM BR OVC015
     FM291500 21013KT P6SM OVC020
     FM291700 21014G23KT P6SM BKN035
     FM291900 21015G25KT P6SM SCT040=

USA.gov is the U.S. government's official web portal to all federal, state and local government web resources and services.